sensor_id;sensor_type;location;lat;lon;timestamp;pressure;altitude;pressure_sealevel;temperature;humidity
7834;BME280;3962;42.696;23.354;2023-01-28T00:02:06;94523.25;;;0.89;91.59
7834;BME280;3962;42.696;23.354;2023-01-28T00:04:33;94508.28;;;0.91;91.15
7834;BME280;3962;42.696;23.354;2023-01-28T00:07:00;94524.22;;;0.88;90.36
7834;BME280;3962;42.696;23.354;2023-01-28T00:09:27;94530.38;;;0.99;91.76
7834;BME280;3962;42.696;23.354;2023-01-28T00:11:53;94533.94;;;0.98;90.64
7834;BME280;3962;42.696;23.354;2023-01-28T00:14:20;94549.31;;;1.03;90.44
7834;BME280;3962;42.696;23.354;2023-01-28T00:16:48;94546.91;;;1.00;91.14
7834;BME280;3962;42.696;23.354;2023-01-28T00:19:15;94551.75;;;1.17;90.30
7834;BME280;3962;42.696;23.354;2023-01-28T00:21:42;94552.56;;;1.06;90.47
7834;BME280;3962;42.696;23.354;2023-01-28T00:24:09;94555.75;;;1.10;89.67
7834;BME280;3962;42.696;23.354;2023-01-28T00:26:35;94559.84;;;1.14;89.49
7834;BME280;3962;42.696;23.354;2023-01-28T00:29:02;94555.50;;;0.89;89.24
7834;BME280;3962;42.696;23.354;2023-01-28T00:31:29;94552.13;;;1.00;89.54
7834;BME280;3962;42.696;23.354;2023-01-28T00:33:57;94557.91;;;1.05;90.13
7834;BME280;3962;42.696;23.354;2023-01-28T00:36:25;94562.63;;;0.87;88.77
7834;BME280;3962;42.696;23.354;2023-01-28T00:38:54;94560.75;;;0.77;90.01
7834;BME280;3962;42.696;23.354;2023-01-28T00:41:23;94572.59;;;0.82;90.90
7834;BME280;3962;42.696;23.354;2023-01-28T00:43:50;94561.28;;;0.94;90.93
7834;BME280;3962;42.696;23.354;2023-01-28T00:46:18;94565.53;;;1.08;89.89
7834;BME280;3962;42.696;23.354;2023-01-28T00:48:46;94564.56;;;1.09;89.86
7834;BME280;3962;42.696;23.354;2023-01-28T00:51:16;94561.38;;;0.93;89.53
7834;BME280;3962;42.696;23.354;2023-01-28T00:53:44;94566.28;;;0.97;90.30
7834;BME280;3962;42.696;23.354;2023-01-28T00:56:12;94567.34;;;0.95;89.89
7834;BME280;3962;42.696;23.354;2023-01-28T00:58:39;94570.47;;;1.00;89.57
7834;BME280;3962;42.696;23.354;2023-01-28T01:01:08;94568.06;;;0.97;89.99
7834;BME280;3962;42.696;23.354;2023-01-28T01:03:35;94567.97;;;0.86;90.23
7834;BME280;3962;42.696;23.354;2023-01-28T01:06:02;94566.94;;;0.88;89.29
7834;BME280;3962;42.696;23.354;2023-01-28T01:08:31;94559.06;;;0.88;90.10
7834;BME280;3962;42.696;23.354;2023-01-28T01:11:00;94568.91;;;0.85;90.52
7834;BME280;3962;42.696;23.354;2023-01-28T01:13:27;94562.84;;;0.97;90.52
7834;BME280;3962;42.696;23.354;2023-01-28T01:16:01;94557.03;;;1.04;90.01
7834;BME280;3962;42.696;23.354;2023-01-28T01:18:28;94573.22;;;0.86;89.69
7834;BME280;3962;42.696;23.354;2023-01-28T01:20:54;94577.31;;;0.90;90.20
7834;BME280;3962;42.696;23.354;2023-01-28T01:23:23;94577.94;;;0.81;90.60
7834;BME280;3962;42.696;23.354;2023-01-28T01:25:52;94572.38;;;0.85;90.01
7834;BME280;3962;42.696;23.354;2023-01-28T01:28:18;94572.28;;;0.87;89.12
7834;BME280;3962;42.696;23.354;2023-01-28T01:30:46;94578.16;;;0.78;89.59
7834;BME280;3962;42.696;23.354;2023-01-28T01:33:13;94575.97;;;0.84;89.50
7834;BME280;3962;42.696;23.354;2023-01-28T01:35:40;94591.34;;;0.89;89.34
7834;BME280;3962;42.696;23.354;2023-01-28T01:38:07;94576.34;;;0.91;90.32
7834;BME280;3962;42.696;23.354;2023-01-28T01:40:34;94580.75;;;0.90;90.64
7834;BME280;3962;42.696;23.354;2023-01-28T01:43:13;94580.22;;;0.98;90.11
7834;BME280;3962;42.696;23.354;2023-01-28T01:45:41;94574.56;;;1.04;89.45
7834;BME280;3962;42.696;23.354;2023-01-28T01:48:13;94579.28;;;0.86;89.91
7834;BME280;3962;42.696;23.354;2023-01-28T01:50:52;94583.69;;;0.86;89.93
7834;BME280;3962;42.696;23.354;2023-01-28T01:53:21;94589.75;;;0.99;90.61
7834;BME280;3962;42.696;23.354;2023-01-28T01:55:53;94583.75;;;1.09;89.75
7834;BME280;3962;42.696;23.354;2023-01-28T01:58:29;94586.63;;;1.06;89.32
7834;BME280;3962;42.696;23.354;2023-01-28T02:00:57;94589.53;;;1.14;89.62
7834;BME280;3962;42.696;23.354;2023-01-28T02:03:30;94585.78;;;0.93;89.02
7834;BME280;3962;42.696;23.354;2023-01-28T02:05:59;94599.28;;;1.00;89.03
7834;BME280;3962;42.696;23.354;2023-01-28T02:08:26;94590.94;;;0.95;90.48
7834;BME280;3962;42.696;23.354;2023-01-28T02:10:55;94598.03;;;0.93;89.87
7834;BME280;3962;42.696;23.354;2023-01-28T02:13:28;94606.19;;;1.01;90.27
7834;BME280;3962;42.696;23.354;2023-01-28T02:15:57;94596.56;;;1.01;88.97
7834;BME280;3962;42.696;23.354;2023-01-28T02:18:25;94589.88;;;0.85;89.42
7834;BME280;3962;42.696;23.354;2023-01-28T02:21:09;94603.59;;;0.88;89.34
7834;BME280;3962;42.696;23.354;2023-01-28T02:23:53;94599.69;;;0.94;89.63
7834;BME280;3962;42.696;23.354;2023-01-28T02:26:29;94600.66;;;0.80;90.20
7834;BME280;3962;42.696;23.354;2023-01-28T02:29:13;94598.66;;;0.96;89.18
7834;BME280;3962;42.696;23.354;2023-01-28T02:31:43;94607.88;;;0.77;89.58
7834;BME280;3962;42.696;23.354;2023-01-28T02:34:18;94608.75;;;0.77;89.01
7834;BME280;3962;42.696;23.354;2023-01-28T02:36:54;94598.25;;;0.90;89.31
7834;BME280;3962;42.696;23.354;2023-01-28T02:39:26;94600.56;;;0.82;89.61
7834;BME280;3962;42.696;23.354;2023-01-28T02:41:57;94597.72;;;0.85;89.46
7834;BME280;3962;42.696;23.354;2023-01-28T02:44:27;94609.44;;;0.92;89.50
7834;BME280;3962;42.696;23.354;2023-01-28T02:46:54;94600.75;;;1.04;88.94
7834;BME280;3962;42.696;23.354;2023-01-28T02:49:40;94601.28;;;0.96;89.04
7834;BME280;3962;42.696;23.354;2023-01-28T02:52:17;94607.16;;;0.87;88.69
7834;BME280;3962;42.696;23.354;2023-01-28T02:54:51;94611.06;;;0.69;90.31
7834;BME280;3962;42.696;23.354;2023-01-28T02:57:29;94605.16;;;0.91;89.46
7834;BME280;3962;42.696;23.354;2023-01-28T03:00:06;94608.00;;;0.88;88.44
7834;BME280;3962;42.696;23.354;2023-01-28T03:02:41;94610.59;;;1.00;88.96
7834;BME280;3962;42.696;23.354;2023-01-28T03:05:15;94601.16;;;1.10;87.92
7834;BME280;3962;42.696;23.354;2023-01-28T03:07:45;94594.75;;;1.02;87.79
7834;BME280;3962;42.696;23.354;2023-01-28T03:10:16;94605.56;;;0.97;88.41
7834;BME280;3962;42.696;23.354;2023-01-28T03:12:47;94607.38;;;0.84;88.42
7834;BME280;3962;42.696;23.354;2023-01-28T03:15:37;94608.94;;;0.74;88.92
7834;BME280;3962;42.696;23.354;2023-01-28T03:18:24;94609.38;;;0.81;88.70
7834;BME280;3962;42.696;23.354;2023-01-28T03:21:14;94623.81;;;0.74;89.01
7834;BME280;3962;42.696;23.354;2023-01-28T03:24:05;94616.06;;;0.72;88.74
7834;BME280;3962;42.696;23.354;2023-01-28T03:26:55;94619.00;;;0.80;88.41
7834;BME280;3962;42.696;23.354;2023-01-28T03:29:42;94619.22;;;0.65;87.83
7834;BME280;3962;42.696;23.354;2023-01-28T03:32:29;94619.41;;;0.62;89.00
7834;BME280;3962;42.696;23.354;2023-01-28T03:35:16;94614.31;;;0.48;88.37
7834;BME280;3962;42.696;23.354;2023-01-28T03:38:01;94623.19;;;0.70;88.85
7834;BME280;3962;42.696;23.354;2023-01-28T03:40:48;94618.91;;;0.82;88.38
7834;BME280;3962;42.696;23.354;2023-01-28T03:43:15;94626.84;;;0.68;88.14
7834;BME280;3962;42.696;23.354;2023-01-28T03:45:42;94621.00;;;0.52;89.09
7834;BME280;3962;42.696;23.354;2023-01-28T03:48:12;94621.53;;;0.69;88.75
7834;BME280;3962;42.696;23.354;2023-01-28T03:50:39;94633.25;;;0.51;88.36
7834;BME280;3962;42.696;23.354;2023-01-28T03:53:06;94625.59;;;0.73;89.71
7834;BME280;3962;42.696;23.354;2023-01-28T03:55:40;94623.81;;;0.74;88.91
7834;BME280;3962;42.696;23.354;2023-01-28T03:58:07;94628.66;;;0.80;88.93
7834;BME280;3962;42.696;23.354;2023-01-28T04:00:34;94636.28;;;0.70;88.13
7834;BME280;3962;42.696;23.354;2023-01-28T04:03:02;94637.00;;;0.60;88.59
7834;BME280;3962;42.696;23.354;2023-01-28T04:05:41;94631.47;;;0.64;88.11
7834;BME280;3962;42.696;23.354;2023-01-28T04:08:08;94640.56;;;0.71;89.52
7834;BME280;3962;42.696;23.354;2023-01-28T04:10:36;94639.75;;;0.71;88.98
7834;BME280;3962;42.696;23.354;2023-01-28T04:13:03;94645.59;;;0.62;89.26
7834;BME280;3962;42.696;23.354;2023-01-28T04:15:30;94648.19;;;0.62;89.51
7834;BME280;3962;42.696;23.354;2023-01-28T04:17:57;94647.06;;;0.53;88.69
7834;BME280;3962;42.696;23.354;2023-01-28T04:20:25;94648.84;;;0.53;89.38
7834;BME280;3962;42.696;23.354;2023-01-28T04:22:53;94652.50;;;0.63;89.11
7834;BME280;3962;42.696;23.354;2023-01-28T04:25:20;94652.22;;;0.67;88.97
7834;BME280;3962;42.696;23.354;2023-01-28T04:27:47;94638.91;;;0.58;88.72
7834;BME280;3962;42.696;23.354;2023-01-28T04:30:14;94622.75;;;0.39;88.35
7834;BME280;3962;42.696;23.354;2023-01-28T04:32:41;94658.03;;;0.58;88.73
7834;BME280;3962;42.696;23.354;2023-01-28T04:35:08;94657.63;;;0.64;89.55
7834;BME280;3962;42.696;23.354;2023-01-28T04:37:35;94663.41;;;0.57;88.04
7834;BME280;3962;42.696;23.354;2023-01-28T04:40:04;94665.72;;;0.74;89.35
7834;BME280;3962;42.696;23.354;2023-01-28T04:42:31;94668.09;;;0.77;88.41
7834;BME280;3962;42.696;23.354;2023-01-28T04:44:58;94674.50;;;0.73;87.92
7834;BME280;3962;42.696;23.354;2023-01-28T04:47:25;94676.69;;;0.66;89.34
7834;BME280;3962;42.696;23.354;2023-01-28T04:49:52;94672.69;;;0.36;90.05
7834;BME280;3962;42.696;23.354;2023-01-28T04:52:18;94684.41;;;0.43;90.42
7834;BME280;3962;42.696;23.354;2023-01-28T04:54:45;94682.84;;;0.53;90.46
7834;BME280;3962;42.696;23.354;2023-01-28T04:57:13;94681.19;;;0.52;89.33
7834;BME280;3962;42.696;23.354;2023-01-28T04:59:41;94684.44;;;0.68;90.21
7834;BME280;3962;42.696;23.354;2023-01-28T05:02:08;94687.38;;;0.63;90.09
7834;BME280;3962;42.696;23.354;2023-01-28T05:04:34;94685.59;;;0.64;89.74
7834;BME280;3962;42.696;23.354;2023-01-28T05:07:01;94693.44;;;0.51;89.47
7834;BME280;3962;42.696;23.354;2023-01-28T05:09:28;94684.75;;;0.51;90.01
7834;BME280;3962;42.696;23.354;2023-01-28T05:11:54;94695.88;;;0.67;90.35
7834;BME280;3962;42.696;23.354;2023-01-28T05:14:23;94693.53;;;0.50;90.15
7834;BME280;3962;42.696;23.354;2023-01-28T05:16:49;94703.16;;;0.49;90.39
7834;BME280;3962;42.696;23.354;2023-01-28T05:19:16;94705.31;;;0.30;90.39
7834;BME280;3962;42.696;23.354;2023-01-28T05:21:43;94707.22;;;0.28;91.32
7834;BME280;3962;42.696;23.354;2023-01-28T05:24:10;94701.47;;;0.36;91.08
7834;BME280;3962;42.696;23.354;2023-01-28T05:26:36;94704.38;;;0.31;90.58
7834;BME280;3962;42.696;23.354;2023-01-28T05:29:03;94709.31;;;0.36;90.78
7834;BME280;3962;42.696;23.354;2023-01-28T05:31:31;94713.63;;;0.49;89.82
7834;BME280;3962;42.696;23.354;2023-01-28T05:33:58;94702.72;;;0.43;90.47
7834;BME280;3962;42.696;23.354;2023-01-28T05:36:25;94706.63;;;0.50;89.85
7834;BME280;3962;42.696;23.354;2023-01-28T05:38:52;94710.59;;;0.55;90.37
7834;BME280;3962;42.696;23.354;2023-01-28T05:41:18;94706.00;;;0.59;90.30
7834;BME280;3962;42.696;23.354;2023-01-28T05:43:45;94709.66;;;0.56;88.89
7834;BME280;3962;42.696;23.354;2023-01-28T05:46:12;94713.75;;;0.48;90.49
7834;BME280;3962;42.696;23.354;2023-01-28T05:48:40;94723.06;;;0.64;89.28
7834;BME280;3962;42.696;23.354;2023-01-28T05:51:07;94715.50;;;0.47;88.67
7834;BME280;3962;42.696;23.354;2023-01-28T05:53:34;94722.13;;;0.53;89.80
7834;BME280;3962;42.696;23.354;2023-01-28T05:56:00;94728.31;;;0.64;89.42
7834;BME280;3962;42.696;23.354;2023-01-28T05:58:27;94719.81;;;0.61;89.42
7834;BME280;3962;42.696;23.354;2023-01-28T06:00:56;94729.16;;;0.65;88.38
7834;BME280;3962;42.696;23.354;2023-01-28T06:03:24;94733.03;;;0.59;88.99
7834;BME280;3962;42.696;23.354;2023-01-28T06:05:52;94738.97;;;0.49;89.17
7834;BME280;3962;42.696;23.354;2023-01-28T06:08:19;94744.84;;;0.52;89.74
7834;BME280;3962;42.696;23.354;2023-01-28T06:10:46;94751.56;;;0.69;89.48
7834;BME280;3962;42.696;23.354;2023-01-28T06:13:12;94751.91;;;0.89;89.12
7834;BME280;3962;42.696;23.354;2023-01-28T06:15:39;94747.03;;;1.35;90.03
7834;BME280;3962;42.696;23.354;2023-01-28T06:18:06;94759.06;;;1.12;87.45
7834;BME280;3962;42.696;23.354;2023-01-28T06:20:33;94751.72;;;0.92;87.33
7834;BME280;3962;42.696;23.354;2023-01-28T06:23:01;94765.13;;;0.88;87.18
7834;BME280;3962;42.696;23.354;2023-01-28T06:25:28;94763.31;;;0.88;87.49
7834;BME280;3962;42.696;23.354;2023-01-28T06:27:54;94763.38;;;0.62;88.21
7834;BME280;3962;42.696;23.354;2023-01-28T06:30:21;94764.16;;;0.76;88.53
7834;BME280;3962;42.696;23.354;2023-01-28T06:32:53;94782.56;;;0.62;87.69
7834;BME280;3962;42.696;23.354;2023-01-28T06:35:20;94773.44;;;0.55;87.92
7834;BME280;3962;42.696;23.354;2023-01-28T06:37:47;94782.47;;;0.64;88.42
7834;BME280;3962;42.696;23.354;2023-01-28T06:40:15;94783.59;;;0.60;89.21
7834;BME280;3962;42.696;23.354;2023-01-28T06:42:42;94789.97;;;0.56;87.99
7834;BME280;3962;42.696;23.354;2023-01-28T06:45:10;94795.13;;;0.70;88.77
7834;BME280;3962;42.696;23.354;2023-01-28T06:47:37;94793.28;;;0.84;87.90
7834;BME280;3962;42.696;23.354;2023-01-28T06:50:04;94803.53;;;0.75;87.68
7834;BME280;3962;42.696;23.354;2023-01-28T06:52:31;94797.50;;;0.87;88.47
7834;BME280;3962;42.696;23.354;2023-01-28T06:54:58;94804.25;;;0.77;87.20
7834;BME280;3962;42.696;23.354;2023-01-28T06:57:27;94796.06;;;0.69;87.30
7834;BME280;3962;42.696;23.354;2023-01-28T06:59:54;94810.09;;;0.68;87.49
7834;BME280;3962;42.696;23.354;2023-01-28T07:02:20;94806.38;;;0.72;87.82
7834;BME280;3962;42.696;23.354;2023-01-28T07:04:47;94813.44;;;0.70;87.55
7834;BME280;3962;42.696;23.354;2023-01-28T07:07:14;94815.25;;;0.69;88.09
7834;BME280;3962;42.696;23.354;2023-01-28T07:09:41;94816.09;;;0.82;88.40
7834;BME280;3962;42.696;23.354;2023-01-28T07:12:07;94825.22;;;0.89;88.44
7834;BME280;3962;42.696;23.354;2023-01-28T07:14:35;94823.97;;;0.82;87.27
7834;BME280;3962;42.696;23.354;2023-01-28T07:17:02;94832.28;;;0.89;87.24
7834;BME280;3962;42.696;23.354;2023-01-28T07:19:29;94838.00;;;2.67;98.93
7834;BME280;3962;42.696;23.354;2023-01-28T07:21:56;94836.47;;;3.23;95.21
7834;BME280;3962;42.696;23.354;2023-01-28T07:24:25;94841.75;;;3.10;90.23
7834;BME280;3962;42.696;23.354;2023-01-28T07:26:51;94847.16;;;3.43;91.51
7834;BME280;3962;42.696;23.354;2023-01-28T07:29:18;94842.28;;;3.26;86.17
7834;BME280;3962;42.696;23.354;2023-01-28T07:31:47;94848.09;;;2.84;84.91
7834;BME280;3962;42.696;23.354;2023-01-28T07:34:14;94842.13;;;2.82;86.15
7834;BME280;3962;42.696;23.354;2023-01-28T07:36:41;94858.13;;;3.37;85.83
7834;BME280;3962;42.696;23.354;2023-01-28T07:39:08;94849.34;;;2.68;80.60
7834;BME280;3962;42.696;23.354;2023-01-28T07:41:35;94855.75;;;1.67;81.53
7834;BME280;3962;42.696;23.354;2023-01-28T07:44:01;94860.13;;;1.29;84.34
7834;BME280;3962;42.696;23.354;2023-01-28T07:46:28;94865.47;;;1.40;84.64
7834;BME280;3962;42.696;23.354;2023-01-28T07:48:56;94859.59;;;1.49;84.17
7834;BME280;3962;42.696;23.354;2023-01-28T07:51:23;94867.78;;;1.44;84.20
7834;BME280;3962;42.696;23.354;2023-01-28T07:53:50;94862.66;;;1.43;85.11
7834;BME280;3962;42.696;23.354;2023-01-28T07:56:17;94862.19;;;1.24;84.66
7834;BME280;3962;42.696;23.354;2023-01-28T07:58:43;94874.31;;;1.12;85.09
7834;BME280;3962;42.696;23.354;2023-01-28T08:01:10;94870.59;;;1.29;85.93
7834;BME280;3962;42.696;23.354;2023-01-28T08:03:38;94865.75;;;1.10;85.78
7834;BME280;3962;42.696;23.354;2023-01-28T08:06:06;94875.50;;;1.21;85.62
7834;BME280;3962;42.696;23.354;2023-01-28T08:08:33;94875.09;;;1.14;85.81
7834;BME280;3962;42.696;23.354;2023-01-28T08:11:06;94881.47;;;1.23;85.30
7834;BME280;3962;42.696;23.354;2023-01-28T08:13:33;94882.94;;;1.14;84.84
7834;BME280;3962;42.696;23.354;2023-01-28T08:16:00;94882.50;;;1.20;85.14
7834;BME280;3962;42.696;23.354;2023-01-28T08:18:27;94873.91;;;1.06;85.99
7834;BME280;3962;42.696;23.354;2023-01-28T08:20:54;94876.53;;;1.06;86.32
7834;BME280;3962;42.696;23.354;2023-01-28T08:23:23;94885.38;;;0.91;86.32
7834;BME280;3962;42.696;23.354;2023-01-28T08:25:51;94895.25;;;1.00;86.58
7834;BME280;3962;42.696;23.354;2023-01-28T08:28:19;94889.34;;;1.23;86.18
7834;BME280;3962;42.696;23.354;2023-01-28T08:30:46;94896.19;;;1.38;85.59
7834;BME280;3962;42.696;23.354;2023-01-28T08:33:15;94886.63;;;1.24;85.06
7834;BME280;3962;42.696;23.354;2023-01-28T08:35:43;94891.97;;;1.23;85.37
7834;BME280;3962;42.696;23.354;2023-01-28T08:38:11;94890.00;;;1.39;84.52
7834;BME280;3962;42.696;23.354;2023-01-28T08:40:40;94880.47;;;1.50;84.34
7834;BME280;3962;42.696;23.354;2023-01-28T08:43:07;94891.59;;;1.66;83.25
7834;BME280;3962;42.696;23.354;2023-01-28T08:45:34;94895.25;;;1.64;82.95
7834;BME280;3962;42.696;23.354;2023-01-28T08:48:03;94887.69;;;1.47;83.76
7834;BME280;3962;42.696;23.354;2023-01-28T08:50:32;94894.09;;;1.43;83.12
7834;BME280;3962;42.696;23.354;2023-01-28T08:53:01;94895.78;;;1.56;84.23
7834;BME280;3962;42.696;23.354;2023-01-28T08:55:28;94892.88;;;1.61;84.05
7834;BME280;3962;42.696;23.354;2023-01-28T08:57:56;94902.31;;;1.63;83.69
7834;BME280;3962;42.696;23.354;2023-01-28T09:00:27;94901.78;;;1.83;83.33
7834;BME280;3962;42.696;23.354;2023-01-28T09:02:54;94905.75;;;1.89;82.63
7834;BME280;3962;42.696;23.354;2023-01-28T09:05:21;94905.56;;;1.92;82.93
7834;BME280;3962;42.696;23.354;2023-01-28T09:07:48;94904.53;;;1.69;82.95
7834;BME280;3962;42.696;23.354;2023-01-28T09:10:15;94905.03;;;1.87;82.78
7834;BME280;3962;42.696;23.354;2023-01-28T09:12:42;94906.84;;;1.86;82.59
7834;BME280;3962;42.696;23.354;2023-01-28T09:15:11;94905.03;;;1.87;83.12
7834;BME280;3962;42.696;23.354;2023-01-28T09:17:38;94909.03;;;2.05;82.33
7834;BME280;3962;42.696;23.354;2023-01-28T09:20:07;94915.09;;;2.18;82.66
7834;BME280;3962;42.696;23.354;2023-01-28T09:22:35;94903.47;;;1.97;83.61
7834;BME280;3962;42.696;23.354;2023-01-28T09:25:02;94907.63;;;1.49;84.21
7834;BME280;3962;42.696;23.354;2023-01-28T09:27:29;94904.97;;;1.24;85.05
7834;BME280;3962;42.696;23.354;2023-01-28T09:29:56;94901.66;;;1.47;86.35
7834;BME280;3962;42.696;23.354;2023-01-28T09:32:24;94895.97;;;1.53;86.21
7834;BME280;3962;42.696;23.354;2023-01-28T09:34:51;94903.09;;;1.39;85.11
7834;BME280;3962;42.696;23.354;2023-01-28T09:37:18;94899.34;;;1.43;85.35
7834;BME280;3962;42.696;23.354;2023-01-28T09:39:45;94897.47;;;1.45;84.89
7834;BME280;3962;42.696;23.354;2023-01-28T09:42:25;94909.31;;;1.50;84.99
7834;BME280;3962;42.696;23.354;2023-01-28T09:45:01;94907.84;;;1.46;85.34
7834;BME280;3962;42.696;23.354;2023-01-28T09:47:35;94898.59;;;1.41;84.59
7834;BME280;3962;42.696;23.354;2023-01-28T09:50:05;94905.69;;;1.26;85.75
7834;BME280;3962;42.696;23.354;2023-01-28T09:52:35;94903.84;;;1.41;85.60
7834;BME280;3962;42.696;23.354;2023-01-28T09:55:05;94898.56;;;1.28;87.08
7834;BME280;3962;42.696;23.354;2023-01-28T09:57:38;94909.69;;;1.32;86.26
7834;BME280;3962;42.696;23.354;2023-01-28T10:00:11;94906.34;;;1.30;86.66
7834;BME280;3962;42.696;23.354;2023-01-28T10:02:51;94907.47;;;1.26;86.78
7834;BME280;3962;42.696;23.354;2023-01-28T10:05:27;94897.44;;;1.32;86.08
7834;BME280;3962;42.696;23.354;2023-01-28T10:08:09;94899.34;;;1.30;87.05
7834;BME280;3962;42.696;23.354;2023-01-28T10:10:43;94907.41;;;1.40;86.60
7834;BME280;3962;42.696;23.354;2023-01-28T10:13:23;94899.34;;;1.43;86.53
7834;BME280;3962;42.696;23.354;2023-01-28T10:16:16;94897.47;;;1.57;85.42
7834;BME280;3962;42.696;23.354;2023-01-28T10:18:50;94899.25;;;1.57;85.46
7834;BME280;3962;42.696;23.354;2023-01-28T10:21:23;94901.53;;;1.49;86.06
7834;BME280;3962;42.696;23.354;2023-01-28T10:23:58;94898.09;;;1.48;86.19
7834;BME280;3962;42.696;23.354;2023-01-28T10:26:30;94897.69;;;1.54;86.29
7834;BME280;3962;42.696;23.354;2023-01-28T10:29:04;94902.91;;;1.42;85.40
7834;BME280;3962;42.696;23.354;2023-01-28T10:31:39;94894.84;;;1.57;87.13
7834;BME280;3962;42.696;23.354;2023-01-28T10:34:10;94894.00;;;1.57;86.66
7834;BME280;3962;42.696;23.354;2023-01-28T10:36:36;94896.34;;;1.86;85.69
7834;BME280;3962;42.696;23.354;2023-01-28T10:39:03;94893.50;;;1.89;85.65
7834;BME280;3962;42.696;23.354;2023-01-28T10:41:31;94895.59;;;1.97;86.05
7834;BME280;3962;42.696;23.354;2023-01-28T10:43:58;94903.25;;;2.00;85.70
7834;BME280;3962;42.696;23.354;2023-01-28T10:46:27;94894.78;;;2.45;85.08
7834;BME280;3962;42.696;23.354;2023-01-28T10:49:00;94886.81;;;2.34;83.65
7834;BME280;3962;42.696;23.354;2023-01-28T10:51:35;94887.53;;;2.36;83.89
7834;BME280;3962;42.696;23.354;2023-01-28T10:54:03;94889.69;;;2.18;83.82
7834;BME280;3962;42.696;23.354;2023-01-28T10:56:43;94896.31;;;2.11;83.99
7834;BME280;3962;42.696;23.354;2023-01-28T10:59:19;94893.66;;;2.24;84.18
7834;BME280;3962;42.696;23.354;2023-01-28T11:01:49;94895.22;;;2.39;84.03
7834;BME280;3962;42.696;23.354;2023-01-28T11:04:18;94888.09;;;2.28;83.24
7834;BME280;3962;42.696;23.354;2023-01-28T11:06:58;94886.19;;;2.30;84.01
7834;BME280;3962;42.696;23.354;2023-01-28T11:09:27;94901.84;;;2.32;83.24
7834;BME280;3962;42.696;23.354;2023-01-28T11:11:55;94892.44;;;2.04;82.68
7834;BME280;3962;42.696;23.354;2023-01-28T11:14:24;94895.16;;;2.03;83.48
7834;BME280;3962;42.696;23.354;2023-01-28T11:16:53;94888.44;;;2.24;82.89
7834;BME280;3962;42.696;23.354;2023-01-28T11:19:26;94895.47;;;2.11;82.86
7834;BME280;3962;42.696;23.354;2023-01-28T11:21:57;94884.84;;;2.25;82.53
7834;BME280;3962;42.696;23.354;2023-01-28T11:24:26;94889.66;;;2.43;82.01
7834;BME280;3962;42.696;23.354;2023-01-28T11:26:56;94889.44;;;2.34;81.24
7834;BME280;3962;42.696;23.354;2023-01-28T11:29:26;94879.47;;;2.39;81.63
7834;BME280;3962;42.696;23.354;2023-01-28T11:31:54;94882.28;;;2.36;81.26
7834;BME280;3962;42.696;23.354;2023-01-28T11:34:25;94888.03;;;2.53;82.90
7834;BME280;3962;42.696;23.354;2023-01-28T11:36:53;94881.47;;;2.71;81.56
7834;BME280;3962;42.696;23.354;2023-01-28T11:39:23;94884.97;;;2.59;81.44
7834;BME280;3962;42.696;23.354;2023-01-28T11:41:53;94876.47;;;2.56;80.64
7834;BME280;3962;42.696;23.354;2023-01-28T11:44:21;94871.09;;;2.70;80.66
7834;BME280;3962;42.696;23.354;2023-01-28T11:50:01;94873.69;;;2.93;80.32
7834;BME280;3962;42.696;23.354;2023-01-28T11:52:41;94876.84;;;2.98;80.23
7834;BME280;3962;42.696;23.354;2023-01-28T11:55:26;94876.78;;;2.87;79.61
7834;BME280;3962;42.696;23.354;2023-01-28T11:58:08;94870.75;;;2.74;79.49
7834;BME280;3962;42.696;23.354;2023-01-28T12:00:40;94876.25;;;2.59;80.05
7834;BME280;3962;42.696;23.354;2023-01-28T12:03:32;94871.38;;;2.78;80.41
7834;BME280;3962;42.696;23.354;2023-01-28T12:06:19;94878.06;;;2.82;80.28
7834;BME280;3962;42.696;23.354;2023-01-28T12:08:59;94875.06;;;2.75;80.17
7834;BME280;3962;42.696;23.354;2023-01-28T12:11:44;94876.66;;;2.89;80.44
7834;BME280;3962;42.696;23.354;2023-01-28T12:14:37;94874.56;;;2.94;79.37
7834;BME280;3962;42.696;23.354;2023-01-28T12:17:16;94882.81;;;2.77;78.92
7834;BME280;3962;42.696;23.354;2023-01-28T12:19:54;94881.31;;;2.62;80.09
7834;BME280;3962;42.696;23.354;2023-01-28T12:22:49;94882.88;;;2.88;79.64
7834;BME280;3962;42.696;23.354;2023-01-28T12:25:24;94876.78;;;3.11;78.77
7834;BME280;3962;42.696;23.354;2023-01-28T12:28:02;94871.25;;;3.03;77.58
7834;BME280;3962;42.696;23.354;2023-01-28T12:30:43;94884.69;;;2.75;78.27
7834;BME280;3962;42.696;23.354;2023-01-28T12:33:32;94883.88;;;2.74;78.79
7834;BME280;3962;42.696;23.354;2023-01-28T12:36:08;94880.63;;;2.94;79.28
7834;BME280;3962;42.696;23.354;2023-01-28T12:38:44;94885.16;;;2.92;77.93
7834;BME280;3962;42.696;23.354;2023-01-28T12:41:15;94891.13;;;2.94;78.82
7834;BME280;3962;42.696;23.354;2023-01-28T12:43:50;94888.06;;;3.00;78.74
7834;BME280;3962;42.696;23.354;2023-01-28T12:46:28;94886.94;;;2.68;78.85
7834;BME280;3962;42.696;23.354;2023-01-28T12:49:03;94881.72;;;2.92;79.49
7834;BME280;3962;42.696;23.354;2023-01-28T12:51:35;94888.38;;;2.85;79.18
7834;BME280;3962;42.696;23.354;2023-01-28T12:54:15;94893.63;;;2.85;79.14
7834;BME280;3962;42.696;23.354;2023-01-28T12:56:49;94901.88;;;2.91;79.94
7834;BME280;3962;42.696;23.354;2023-01-28T12:59:21;94908.19;;;2.89;79.49
7834;BME280;3962;42.696;23.354;2023-01-28T13:01:56;94907.66;;;2.96;79.75
7834;BME280;3962;42.696;23.354;2023-01-28T13:04:31;94902.00;;;2.90;79.24
7834;BME280;3962;42.696;23.354;2023-01-28T13:07:05;94912.50;;;2.90;79.65
7834;BME280;3962;42.696;23.354;2023-01-28T13:09:36;94892.47;;;2.76;79.67
7834;BME280;3962;42.696;23.354;2023-01-28T13:12:04;94901.25;;;2.64;80.47
7834;BME280;3962;42.696;23.354;2023-01-28T13:14:33;94912.47;;;2.66;80.20
7834;BME280;3962;42.696;23.354;2023-01-28T13:17:10;94922.44;;;2.74;79.94
7834;BME280;3962;42.696;23.354;2023-01-28T13:19:39;94916.56;;;2.70;79.94
7834;BME280;3962;42.696;23.354;2023-01-28T13:22:11;94915.72;;;2.70;80.82
7834;BME280;3962;42.696;23.354;2023-01-28T13:24:39;94919.31;;;2.69;79.40
7834;BME280;3962;42.696;23.354;2023-01-28T13:27:11;94919.09;;;2.72;79.61
7834;BME280;3962;42.696;23.354;2023-01-28T13:29:46;94924.97;;;2.75;79.10
7834;BME280;3962;42.696;23.354;2023-01-28T13:32:29;94925.19;;;2.72;78.70
7834;BME280;3962;42.696;23.354;2023-01-28T13:34:57;94931.66;;;2.79;78.87
7834;BME280;3962;42.696;23.354;2023-01-28T13:37:34;94940.50;;;2.78;77.93
7834;BME280;3962;42.696;23.354;2023-01-28T13:40:19;94934.38;;;2.90;78.09
7834;BME280;3962;42.696;23.354;2023-01-28T13:42:57;94931.44;;;2.82;79.01
7834;BME280;3962;42.696;23.354;2023-01-28T13:45:26;94944.88;;;2.90;77.67